Time;durP1;ratioP1;P1;durP2;ratioP2;P2;SDS_P1;SDS_P2;PMS_P1;PMS_P2;Temp;Humidity;BMP_temperature;BMP_pressure;BME280_temperature;BME280_humidity;BME280_pressure;Samples;Min_cycle;Max_cycle;Signal;HPM_P1;HPM_P2
2021/05/05 00:05:42;;;;;;;4.93;3.50;;;;;;;10.13;62.27;98093.86;512959;1104;116360;-58
2021/05/05 00:15:47;;;;;;;3.73;3.40;;;;;;;10.03;62.37;98095.61;514675;1104;115868;-59
2021/05/05 00:25:52;;;;;;;5.00;3.27;;;;;;;9.90;62.78;98083.55;513611;1104;116105;-57
2021/05/05 00:35:56;;;;;;;2.97;2.57;;;;;;;9.78;63.47;98093.30;513650;1104;115631;-56
2021/05/05 00:46:01;;;;;;;4.33;2.58;;;;;;;9.67;63.62;98080.28;511917;1104;116130;-55
2021/05/05 00:56:07;;;;;;;3.40;3.10;;;;;;;9.42;64.02;98073.64;513979;1104;116689;-57
2021/05/05 01:06:12;;;;;;;2.53;2.33;;;;;;;9.30;64.24;98070.28;512717;1104;115799;-57
2021/05/05 01:16:17;;;;;;;3.40;2.43;;;;;;;9.14;64.54;98068.09;512755;1104;115906;-54
2021/05/05 01:26:22;;;;;;;3.23;2.40;;;;;;;8.91;64.82;98070.81;512647;1104;115536;-55
2021/05/05 01:36:32;;;;;;;2.70;2.35;;;;;;;8.67;65.04;98069.23;513976;1104;116408;-54
2021/05/05 01:46:46;;;;;;;3.78;2.30;;;;;;;8.63;65.31;98086.96;512331;1104;115561;-57
2021/05/05 01:56:51;;;;;;;3.43;2.43;;;;;;;8.45;65.75;98080.54;513274;1104;115983;-56
2021/05/05 02:06:56;;;;;;;3.20;2.90;;;;;;;8.21;66.01;98058.00;511595;1104;115739;-57
2021/05/05 02:17:01;;;;;;;3.70;1.90;;;;;;;8.27;66.45;98054.91;512421;1100;116014;-56
2021/05/05 02:27:07;;;;;;;2.80;2.30;;;;;;;8.36;66.50;98042.88;512888;1104;116272;-57
2021/05/05 02:37:12;;;;;;;2.57;2.37;;;;;;;8.11;66.44;98037.80;511938;1104;116429;-56
2021/05/05 02:47:18;;;;;;;2.20;2.00;;;;;;;7.97;67.09;98044.13;512030;1104;116021;-57
2021/05/05 02:57:24;;;;;;;3.37;1.63;;;;;;;7.90;67.22;98047.32;513449;1104;116285;-55
2021/05/05 03:07:29;;;;;;;3.70;2.23;;;;;;;7.93;67.42;98039.27;512153;1104;116224;-56
2021/05/05 03:17:33;;;;;;;2.27;1.83;;;;;;;8.20;67.19;98036.27;512565;1104;116869;-53
2021/05/05 03:27:38;;;;;;;2.73;2.23;;;;;;;8.50;66.61;98037.39;511760;1104;116497;-56
2021/05/05 03:37:43;;;;;;;2.90;1.70;;;;;;;8.64;66.30;98035.45;512010;1099;116539;-55
2021/05/05 03:47:47;;;;;;;3.10;2.50;;;;;;;8.79;66.28;98039.45;512294;1104;116695;-55
2021/05/05 03:57:52;;;;;;;4.50;2.57;;;;;;;9.55;65.54;98053.31;512081;1104;117609;-55
2021/05/05 04:07:57;;;;;;;2.98;2.30;;;;;;;10.64;64.32;98044.84;512729;1104;117193;-57
2021/05/05 04:18:02;;;;;;;3.37;1.50;;;;;;;11.16;62.08;98058.66;513056;1104;115806;-60
2021/05/05 04:28:26;;;;;;;5.50;2.50;;;;;;;11.39;61.11;98051.31;512238;1100;116196;-60
2021/05/05 04:38:30;;;;;;;5.03;1.60;;;;;;;11.64;59.54;98041.14;512236;1104;116209;-61
2021/05/05 04:48:35;;;;;;;2.77;1.20;;;;;;;11.75;58.89;98045.38;511724;1104;115878;-58
2021/05/05 04:58:43;;;;;;;3.33;1.60;;;;;;;12.24;58.34;98036.49;513234;1100;116771;-61
2021/05/05 05:08:48;;;;;;;1.80;1.43;;;;;;;16.92;56.14;98014.87;513204;1104;115918;-63
2021/05/05 05:18:53;;;;;;;4.00;1.65;;;;;;;20.64;46.28;98020.08;513271;1104;117066;-59
2021/05/05 05:28:57;;;;;;;1.98;0.90;;;;;;;16.47;46.79;98032.41;512238;1099;115849;-59
2021/05/05 05:39:02;;;;;;;3.57;1.00;;;;;;;14.53;48.50;98040.97;512035;1104;116873;-58
2021/05/05 05:49:08;;;;;;;3.80;1.60;;;;;;;13.12;49.48;98040.26;512639;1104;116011;-59
2021/05/05 05:59:13;;;;;;;3.43;1.80;;;;;;;12.72;50.71;98059.03;513384;1100;116205;-58
2021/05/05 06:09:18;;;;;;;8.30;1.63;;;;;;;12.32;51.33;98044.45;513078;1104;116016;-54
2021/05/05 06:19:22;;;;;;;2.50;1.50;;;;;;;12.29;51.63;98050.02;521352;1104;116177;-55
2021/05/05 06:29:27;;;;;;;2.70;1.38;;;;;;;12.51;52.38;98035.60;514295;1104;116340;-54
2021/05/05 06:39:32;;;;;;;1.77;1.40;;;;;;;12.65;52.01;98039.53;512572;1104;115668;-59
2021/05/05 06:49:36;;;;;;;3.73;2.00;;;;;;;12.30;52.66;98036.73;512752;1099;116596;-58
2021/05/05 06:59:41;;;;;;;6.30;2.00;;;;;;;12.43;53.31;98036.35;511951;1104;115532;-59
2021/05/05 07:09:47;;;;;;;4.57;2.33;;;;;;;12.58;53.69;98035.83;511786;1104;118522;-63
2021/05/05 07:19:53;;;;;;;4.13;2.08;;;;;;;12.74;53.83;98025.47;513073;1104;116155;-61
2021/05/05 07:29:59;;;;;;;2.15;1.35;;;;;;;13.82;52.55;98028.05;513131;1104;115797;-58
2021/05/05 07:50:31;;;;;;;2.70;1.37;;;;;;;21.77;44.71;98003.45;514839;1104;116945;-58
2021/05/05 08:00:35;;;;;;;2.90;1.80;;;;;;;22.11;42.78;97996.13;514241;1100;116479;-60
2021/05/05 08:10:40;;;;;;;5.90;2.53;;;;;;;23.25;41.07;97997.25;512858;1104;115885;-58
2021/05/05 08:20:45;;;;;;;3.40;1.37;;;;;;;22.71;39.51;97968.23;512809;1099;115716;-59
2021/05/05 08:30:51;;;;;;;4.43;1.30;;;;;;;21.28;38.43;97963.69;512193;1100;116481;-58
2021/05/05 08:40:57;;;;;;;4.47;1.70;;;;;;;20.27;37.65;97972.42;512817;1100;115374;-59
2021/05/05 08:51:01;;;;;;;3.23;0.60;;;;;;;19.17;38.39;97986.39;512479;1104;117702;-59
2021/05/05 09:01:06;;;;;;;6.30;1.10;;;;;;;18.08;39.73;97975.75;512081;1099;117500;-59
2021/05/05 09:11:12;;;;;;;2.17;0.77;;;;;;;17.26;40.49;97972.18;512797;1099;116447;-59
2021/05/05 09:21:23;;;;;;;2.90;1.50;;;;;;;16.59;40.95;97985.15;512399;1104;115588;-58
2021/05/05 09:31:35;;;;;;;2.83;0.83;;;;;;;15.67;41.19;97982.95;512210;1104;116039;-59
2021/05/05 09:41:46;;;;;;;1.95;1.75;;;;;;;15.17;42.73;97981.41;512632;1104;116684;-59
2021/05/05 09:51:55;;;;;;;2.53;1.67;;;;;;;14.60;44.68;98015.58;512315;1099;117005;-59
2021/05/05 10:02:03;;;;;;;1.70;1.20;;;;;;;13.84;47.62;98003.14;513204;1104;118009;-58
2021/05/05 10:12:09;;;;;;;2.87;1.70;;;;;;;13.64;51.27;98050.03;512516;1100;115906;-59
2021/05/05 10:22:15;;;;;;;2.37;1.73;;;;;;;12.64;54.10;98066.00;512285;1099;117284;-59
2021/05/05 10:32:23;;;;;;;2.75;2.00;;;;;;;12.09;56.67;98075.61;513006;1099;116188;-58
2021/05/05 10:42:28;;;;;;;2.73;1.40;;;;;;;11.96;58.06;98073.27;514683;1104;116469;-59
2021/05/05 10:53:02;;;;;;;2.23;2.03;;;;;;;11.94;58.73;98077.85;512283;1099;116000;-57
2021/05/05 11:03:08;;;;;;;2.13;1.50;;;;;;;11.91;58.34;98087.70;513346;1104;116070;-59
2021/05/05 11:13:43;;;;;;;3.35;1.25;;;;;;;11.44;58.69;98088.50;512185;1104;116106;-59
2021/05/05 11:23:47;;;;;;;3.40;2.00;;;;;;;10.96;59.56;98068.36;513030;1099;116164;-59
2021/05/05 11:34:02;;;;;;;2.77;1.70;;;;;;;10.75;60.23;98090.31;511485;1104;115396;-61
2021/05/05 11:44:07;;;;;;;4.53;1.87;;;;;;;10.91;61.00;98097.66;495348;1104;20001911;-59
2021/05/05 11:54:14;;;;;;;4.00;2.57;;;;;;;11.05;60.98;98085.92;512520;1104;116250;-59
2021/05/05 12:04:23;;;;;;;5.67;2.90;;;;;;;11.30;61.16;98088.94;510874;1104;116602;-59
2021/05/05 12:14:31;;;;;;;4.10;3.57;;;;;;;11.44;60.80;98095.56;512381;1104;116224;-58
2021/05/05 12:24:36;;;;;;;2.67;1.80;;;;;;;11.56;60.47;98085.70;511851;1104;117328;-61
2021/05/05 12:34:40;;;;;;;4.70;1.87;;;;;;;11.40;60.28;98046.87;512365;1104;115648;-60
2021/05/05 12:44:45;;;;;;;3.43;2.87;;;;;;;11.57;61.01;98037.41;513906;1104;116008;-60
2021/05/05 12:54:49;;;;;;;2.10;1.87;;;;;;;12.02;59.95;98018.30;512134;1104;116430;-60
2021/05/05 13:05:05;;;;;;;3.23;2.20;;;;;;;12.47;59.49;98011.41;512795;1104;116339;-60
2021/05/05 13:15:30;;;;;;;2.60;2.25;;;;;;;12.40;58.88;98012.13;512704;1099;116302;-60
2021/05/05 13:26:23;;;;;;;3.53;2.47;;;;;;;12.56;59.06;98008.83;512194;1104;116100;-59
2021/05/05 13:36:20;;;;;;;3.70;3.15;;;;;;;13.05;58.42;98007.62;512733;1104;116433;-59
2021/05/05 13:46:32;;;;;;;3.93;2.43;;;;;;;12.75;58.03;98006.05;512104;1099;116350;-60
2021/05/05 13:56:36;;;;;;;3.65;2.25;;;;;;;12.62;58.36;98013.51;514567;1100;115812;-59
2021/05/05 14:06:43;;;;;;;3.30;2.50;;;;;;;12.38;58.24;98017.56;512218;1099;116933;-59
2021/05/05 14:16:48;;;;;;;3.70;2.20;;;;;;;12.61;58.34;98009.22;512512;1099;117234;-61
2021/05/05 14:26:53;;;;;;;5.07;2.40;;;;;;;13.10;58.13;98006.17;512681;1099;116219;-60
2021/05/05 14:36:59;;;;;;;5.13;2.70;;;;;;;13.26;57.79;98010.70;511504;1099;116498;-60
2021/05/05 14:57:31;;;;;;;6.20;3.05;;;;;;;13.01;57.24;98014.99;512963;1104;116762;-61
2021/05/05 15:07:36;;;;;;;4.67;3.77;;;;;;;12.80;57.02;98010.87;517404;1104;116437;-57
2021/05/05 15:28:12;;;;;;;5.73;3.40;;;;;;;12.75;57.21;98018.38;496454;1104;20002519;-60
2021/05/05 15:38:21;;;;;;;6.50;3.23;;;;;;;12.48;57.36;97999.05;513342;1104;115995;-60
2021/05/05 15:48:26;;;;;;;8.60;5.20;;;;;;;12.00;57.37;98012.34;511616;1104;117192;-60
2021/05/05 15:58:35;;;;;;;8.60;5.10;;;;;;;11.81;57.66;97999.27;512485;1104;115967;-63
2021/05/05 16:19:04;;;;;;;10.23;5.40;;;;;;;11.47;57.83;97992.77;511787;1104;116562;-62
2021/05/05 16:29:30;;;;;;;30.95;16.15;;;;;;;11.22;58.10;98005.57;512118;1100;116295;-60
2021/05/05 16:50:26;;;;;;;7.07;3.27;;;;;;;10.36;61.20;98018.41;512927;1104;116124;-61
2021/05/05 17:00:48;;;;;;;5.10;2.30;;;;;;;10.17;61.96;97998.22;512146;1100;116618;-60
2021/05/05 17:10:53;;;;;;;8.90;5.00;;;;;;;9.96;62.94;98071.70;513570;1104;115969;-59
2021/05/05 17:21:00;;;;;;;17.43;8.37;;;;;;;9.70;63.02;98045.13;512844;1104;115985;-59
2021/05/05 17:52:21;;;;;;;6.53;4.83;;;;;;;9.13;64.05;98045.48;510679;1104;115996;-58
2021/05/05 18:23:22;;;;;;;5.15;2.90;;;;;;;8.48;62.71;98109.06;512130;1104;116171;-58
2021/05/05 18:33:29;;;;;;;6.47;3.37;;;;;;;8.30;62.51;98114.81;512130;1104;116379;-59
2021/05/05 18:43:42;;;;;;;11.90;3.90;;;;;;;8.17;61.91;98132.41;511431;1104;116101;-59
2021/05/05 19:15:05;;;;;;;3.20;2.60;;;;;;;7.56;63.44;98168.31;512364;1104;116304;-59
2021/05/05 21:09:24;;;;;;;9.67;5.07;;;;;;;5.80;69.37;98297.75;513486;1104;115654;-59
2021/05/05 21:41:07;;;;;;;9.30;4.20;;;;;;;4.99;69.98;98317.61;512570;1100;116538;-58
2021/05/05 22:53:46;;;;;;;4.23;2.40;;;;;;;4.23;69.51;98364.50;512636;1104;116209;-59
2021/05/05 23:15:13;;;;;;;2.80;1.97;;;;;;;4.43;69.25;98359.92;513071;1100;115741;-61
